Terminal Aerodrome Forecast
Issued by NWS Grand Forks, ND

Home | Current Version | Previous Version | Graphics & Text | Print | Product List | Glossary On
Versions: 1 2 3 4 5 6 7 8 9 10 11 12
000
FTUS43 KFGF 111100
TAFFAR
TAF
KFAR 111139Z 1112/1212 15008KT P6SM SCT045
     FM111600 27008KT P6SM SCT250
     FM111800 32013KT P6SM SCT250
     FM120100 31005KT P6SM SCT250=

USA.gov is the U.S. government's official web portal to all federal, state and local government web resources and services.